Time;durP1;ratioP1;P1;durP2;ratioP2;P2;SDS_P1;SDS_P2;PMS_P1;PMS_P2;Temp;Humidity;BMP_temperature;BMP_pressure;BME280_temperature;BME280_humidity;BME280_pressure;Samples;Min_cycle;Max_cycle;Signal;HPM_P1;HPM_P2
2024/02/29 00:02:27;;;;;;;22.60;7.20;;;;;;;3.92;62.26;100563.31;108438;1253;59667;-78
2024/02/29 00:04:54;;;;;;;21.90;8.30;;;;;;;3.91;62.36;100565.18;108423;1253;59198;-77
2024/02/29 00:07:22;;;;;;;19.30;7.70;;;;;;;3.90;62.64;100553.30;108687;1252;72578;-79
2024/02/29 00:09:49;;;;;;;22.50;7.60;;;;;;;3.90;62.62;100559.98;108757;1257;68699;-78
2024/02/29 00:12:16;;;;;;;18.50;7.70;;;;;;;3.89;62.64;100552.14;107744;1253;71062;-79
2024/02/29 00:14:44;;;;;;;19.60;6.70;;;;;;;3.88;62.59;100553.77;108406;1253;60408;-79
2024/02/29 00:17:11;;;;;;;18.80;7.30;;;;;;;3.88;62.57;100555.52;108604;1252;58081;-78
2024/02/29 00:19:39;;;;;;;18.50;7.20;;;;;;;3.87;62.75;100550.35;109411;1253;72550;-77
2024/02/29 00:22:06;;;;;;;21.10;7.60;;;;;;;3.88;62.52;100554.00;109341;1253;68073;-79
2024/02/29 00:24:33;;;;;;;15.70;7.10;;;;;;;3.88;62.53;100554.01;108550;1253;73679;-77
2024/02/29 00:27:01;;;;;;;16.90;7.40;;;;;;;3.87;62.61;100556.32;108539;1256;59230;-78
2024/02/29 00:29:29;;;;;;;19.30;7.30;;;;;;;3.87;62.63;100558.23;108769;1253;58772;-80
2024/02/29 00:32:00;;;;;;;24.10;7.70;;;;;;;3.88;62.54;100561.68;108728;1254;72603;-80
2024/02/29 00:34:29;;;;;;;18.60;7.80;;;;;;;3.89;62.56;100557.92;108860;1254;69023;-78
2024/02/29 00:36:56;;;;;;;17.40;6.80;;;;;;;3.89;62.51;100558.61;108303;1254;71369;-78
2024/02/29 00:39:23;;;;;;;23.50;7.70;;;;;;;3.91;62.73;100556.09;107717;1253;60452;-77
2024/02/29 00:41:51;;;;;;;15.90;6.80;;;;;;;3.90;62.63;100555.73;108065;1255;60447;-79
2024/02/29 00:44:18;;;;;;;27.70;7.70;;;;;;;3.91;62.56;100551.52;108491;1254;73827;-78
2024/02/29 00:46:46;;;;;;;24.20;7.50;;;;;;;3.89;62.74;100557.79;109478;1253;70062;-82
2024/02/29 00:49:13;;;;;;;15.60;6.90;;;;;;;3.87;62.68;100548.80;109512;1253;71136;-82
2024/02/29 00:51:41;;;;;;;19.60;6.90;;;;;;;3.87;62.60;100549.33;109426;1258;57946;-82
2024/02/29 00:54:09;;;;;;;18.90;7.20;;;;;;;3.86;62.71;100544.67;109325;1254;192393;-82
2024/02/29 00:58:55;;;;;;;19.70;7.50;;;;;;;3.85;62.91;100549.48;106745;1284;599402;-81
2024/02/29 01:01:23;;;;;;;19.70;7.00;;;;;;;3.82;63.04;100540.73;108716;1266;58042;-80
2024/02/29 01:03:50;;;;;;;18.90;8.00;;;;;;;3.82;63.12;100538.66;108404;1263;59220;-82
2024/02/29 01:06:18;;;;;;;19.40;7.00;;;;;;;3.81;63.03;100538.03;108161;1269;70732;-78
2024/02/29 01:08:45;;;;;;;19.80;7.00;;;;;;;3.79;63.15;100534.63;108100;1270;68809;-77
2024/02/29 01:11:13;;;;;;;23.70;7.50;;;;;;;3.78;63.31;100533.86;108460;1264;71499;-80
2024/02/29 01:13:40;;;;;;;17.80;7.00;;;;;;;3.75;63.22;100540.66;108761;1263;167033;-79
2024/02/29 01:16:07;;;;;;;19.40;7.40;;;;;;;3.74;63.40;100533.21;109210;1257;58779;-79
2024/02/29 01:18:35;;;;;;;17.80;7.20;;;;;;;3.71;63.56;100527.60;109208;1257;70954;-81
2024/02/29 01:21:03;;;;;;;16.50;6.80;;;;;;;3.70;63.59;100531.91;109280;1256;68924;-80
2024/02/29 01:23:31;;;;;;;22.60;6.70;;;;;;;3.68;63.56;100530.48;109121;1257;71129;-79
2024/02/29 01:25:58;;;;;;;24.50;8.10;;;;;;;3.67;63.76;100535.78;108335;1256;58709;-78
2024/02/29 01:28:25;;;;;;;16.60;6.20;;;;;;;3.66;63.69;100533.09;107942;1256;59230;-76
2024/02/29 01:30:53;;;;;;;24.20;7.60;;;;;;;3.63;63.73;100532.19;107986;1256;71850;-78
2024/02/29 01:33:20;;;;;;;16.30;7.20;;;;;;;3.62;63.75;100525.63;107852;1257;68700;-79
2024/02/29 01:35:48;;;;;;;21.80;7.70;;;;;;;3.62;63.99;100535.11;108523;1257;70330;-77
2024/02/29 01:38:15;;;;;;;17.00;7.80;;;;;;;3.61;64.05;100538.66;109057;1254;59641;-80
2024/02/29 01:40:46;;;;;;;15.60;6.10;;;;;;;3.61;64.00;100529.55;109564;1251;58780;-78
2024/02/29 01:43:13;;;;;;;21.90;7.00;;;;;;;3.62;64.00;100525.80;109386;1251;71800;-81
2024/02/29 01:45:41;;;;;;;16.70;6.90;;;;;;;3.62;64.06;100530.88;109640;1251;68771;-80
2024/02/29 01:48:08;;;;;;;19.30;7.10;;;;;;;3.62;64.04;100529.33;109406;1251;71482;-78
2024/02/29 01:50:36;;;;;;;19.20;6.60;;;;;;;3.61;64.03;100523.63;109126;1251;59193;-81
2024/02/29 01:53:03;;;;;;;18.40;6.40;;;;;;;3.60;64.17;100525.39;109075;1251;59042;-81
2024/02/29 01:55:31;;;;;;;21.10;7.50;;;;;;;3.60;64.21;100520.17;109111;1251;71921;-78
2024/02/29 01:57:58;;;;;;;15.60;6.70;;;;;;;3.60;64.26;100522.97;109055;1251;68674;-79
2024/02/29 02:00:26;;;;;;;15.60;6.80;;;;;;;3.60;64.33;100525.09;109337;1251;71140;-81
2024/02/29 02:02:53;;;;;;;23.10;6.20;;;;;;;3.58;64.53;100531.30;109175;1251;58120;-80
2024/02/29 02:05:20;;;;;;;17.10;6.30;;;;;;;3.59;64.42;100533.15;109543;1251;58813;-80
2024/02/29 02:07:48;;;;;;;20.60;6.00;;;;;;;3.59;64.45;100531.77;109648;1250;71778;-82
2024/02/29 02:10:15;;;;;;;18.90;6.60;;;;;;;3.59;64.47;100527.95;109357;1254;69141;-80
2024/02/29 02:12:45;;;;;;;16.20;6.80;;;;;;;3.59;64.49;100531.94;109522;1251;70078;-80
2024/02/29 02:15:17;;;;;;;19.50;6.60;;;;;;;3.59;64.54;100529.81;109438;1252;58357;-81
2024/02/29 02:17:44;;;;;;;16.70;6.00;;;;;;;3.59;64.61;100530.39;109446;1253;58760;-81
2024/02/29 02:20:19;;;;;;;14.50;6.30;;;;;;;3.58;64.38;100523.77;109502;1250;70609;-81
2024/02/29 02:22:47;;;;;;;20.20;6.40;;;;;;;3.58;64.67;100528.02;109392;1251;68707;-81
2024/02/29 02:25:14;;;;;;;16.00;6.20;;;;;;;3.56;64.67;100525.67;109531;1251;71366;-79
2024/02/29 02:27:42;;;;;;;19.80;6.70;;;;;;;3.54;64.67;100530.54;109160;1254;58217;-80
2024/02/29 02:30:10;;;;;;;16.30;6.90;;;;;;;3.52;64.82;100529.42;109585;1251;58801;-81
2024/02/29 02:32:37;;;;;;;19.40;7.20;;;;;;;3.51;64.83;100529.70;109524;1252;71474;-79
2024/02/29 02:35:06;;;;;;;15.70;6.20;;;;;;;3.49;65.03;100527.71;109388;1251;68733;-80
2024/02/29 02:37:34;;;;;;;20.20;7.30;;;;;;;3.47;65.00;100523.08;109277;1251;71416;-79
2024/02/29 02:40:04;;;;;;;28.40;7.20;;;;;;;3.46;65.06;100524.22;108705;1253;59193;-80
2024/02/29 02:42:34;;;;;;;20.80;7.20;;;;;;;3.45;65.26;100522.42;108933;1252;59096;-80
2024/02/29 02:45:02;;;;;;;15.70;7.10;;;;;;;3.43;65.27;100523.05;108827;1259;71941;-81
2024/02/29 02:47:29;;;;;;;18.00;7.50;;;;;;;3.42;65.20;100520.87;108797;1254;71597;-81
2024/02/29 02:49:57;;;;;;;19.40;7.40;;;;;;;3.39;65.40;100529.45;108809;1253;71462;-80
2024/02/29 02:52:24;;;;;;;20.60;6.70;;;;;;;3.36;65.36;100527.35;109352;1253;58043;-81
2024/02/29 02:54:52;;;;;;;18.50;7.10;;;;;;;3.32;65.55;100525.68;109312;1253;59236;-79
2024/02/29 02:57:20;;;;;;;20.90;7.00;;;;;;;3.31;65.59;100531.72;109387;1250;71476;-83
2024/02/29 02:59:47;;;;;;;23.20;7.90;;;;;;;3.29;65.69;100527.65;109604;1251;69029;-81
2024/02/29 03:02:14;;;;;;;25.40;9.90;;;;;;;3.26;65.74;100531.52;109316;1250;71369;-82
2024/02/29 03:04:42;;;;;;;26.00;8.60;;;;;;;3.23;66.17;100526.31;109606;1250;58071;-82
2024/02/29 03:07:09;;;;;;;23.90;9.20;;;;;;;3.20;66.30;100527.36;109726;1251;58685;-83
2024/02/29 03:09:37;;;;;;;23.50;9.60;;;;;;;3.20;66.18;100524.93;109736;1251;70945;-80
2024/02/29 03:12:05;;;;;;;27.60;9.50;;;;;;;3.27;66.07;100520.94;109377;1251;68762;-79
2024/02/29 03:14:32;;;;;;;24.50;10.00;;;;;;;3.29;66.06;100527.98;109355;1251;71267;-82
2024/02/29 03:17:00;;;;;;;27.10;9.50;;;;;;;3.26;66.07;100527.10;109628;1256;58033;-78
2024/02/29 03:19:27;;;;;;;25.20;9.90;;;;;;;3.23;66.04;100528.71;109508;1251;59505;-80
2024/02/29 03:21:54;;;;;;;24.90;9.10;;;;;;;3.20;66.14;100526.72;109594;1256;71987;-77
2024/02/29 03:24:22;;;;;;;22.30;10.00;;;;;;;3.14;66.43;100522.66;109592;1251;68769;-80
2024/02/29 03:26:49;;;;;;;27.70;9.50;;;;;;;3.10;66.33;100521.03;109455;1254;71905;-80
2024/02/29 03:29:17;;;;;;;25.40;10.20;;;;;;;3.06;66.74;100525.15;109566;1251;57933;-81
2024/02/29 03:31:44;;;;;;;27.40;9.30;;;;;;;2.99;66.94;100515.61;109251;1251;59269;-81
2024/02/29 03:34:12;;;;;;;28.00;9.60;;;;;;;2.95;67.13;100512.02;109507;1251;71453;-82
2024/02/29 03:36:39;;;;;;;23.80;8.90;;;;;;;2.91;67.08;100514.52;109542;1251;68698;-81
2024/02/29 03:39:07;;;;;;;21.40;9.30;;;;;;;2.88;67.40;100518.24;109387;1253;71329;-81
2024/02/29 03:41:34;;;;;;;20.70;9.00;;;;;;;2.86;67.43;100518.73;108732;1251;59506;-79
2024/02/29 03:44:02;;;;;;;19.70;8.70;;;;;;;2.91;67.51;100519.98;109050;1251;59474;-80
2024/02/29 03:46:29;;;;;;;24.20;9.50;;;;;;;2.98;67.51;100515.71;108950;1254;71921;-81
2024/02/29 03:48:57;;;;;;;18.10;8.00;;;;;;;2.97;67.48;100520.83;108779;1251;69080;-78
2024/02/29 03:51:25;;;;;;;26.00;10.30;;;;;;;2.93;67.63;100524.40;109014;1251;72888;-81
2024/02/29 03:53:52;;;;;;;23.60;8.60;;;;;;;2.89;67.56;100530.42;109420;1254;59426;-79
2024/02/29 03:56:20;;;;;;;22.00;8.90;;;;;;;2.86;67.82;100533.77;109396;1251;58756;-80
2024/02/29 03:58:47;;;;;;;20.40;8.60;;;;;;;2.84;67.94;100529.17;109579;1251;72045;-83
2024/02/29 04:01:15;;;;;;;26.10;9.20;;;;;;;2.81;68.09;100533.05;109595;1251;68763;-82
2024/02/29 04:03:44;;;;;;;20.10;8.80;;;;;;;2.78;68.05;100532.88;109668;1253;71725;-84
2024/02/29 04:06:15;;;;;;;19.60;8.00;;;;;;;2.75;68.12;100532.73;109265;1251;58504;-85
2024/02/29 04:08:42;;;;;;;35.30;15.00;;;;;;;2.76;68.23;100538.10;108226;1251;59234;-84
2024/02/29 04:11:09;;;;;;;18.90;8.50;;;;;;;2.85;68.41;100542.41;109106;1251;71765;-83
2024/02/29 04:13:37;;;;;;;17.50;8.10;;;;;;;2.87;68.26;100545.45;109507;1250;67998;-85
2024/02/29 04:16:05;;;;;;;22.80;7.70;;;;;;;2.86;68.25;100542.90;109584;1251;71369;-84
2024/02/29 04:18:32;;;;;;;20.10;8.80;;;;;;;2.84;68.35;100551.06;109431;1251;57961;-81
2024/02/29 04:20:59;;;;;;;22.20;8.50;;;;;;;2.83;68.39;100540.61;109617;1251;58729;-84
2024/02/29 04:23:27;;;;;;;17.40;8.50;;;;;;;2.82;68.35;100545.63;109496;1251;72021;-83
2024/02/29 04:25:54;;;;;;;19.30;8.40;;;;;;;2.80;68.52;100543.98;109476;1253;68799;-81
2024/02/29 04:28:22;;;;;;;19.00;9.10;;;;;;;2.78;68.50;100554.44;109362;1251;71067;-79
2024/02/29 04:30:49;;;;;;;23.60;8.80;;;;;;;2.74;68.85;100550.83;109534;1251;58048;-80
2024/02/29 04:33:17;;;;;;;19.90;7.30;;;;;;;2.71;68.74;100548.38;109299;1253;58719;-80
2024/02/29 04:35:51;;;;;;;23.30;8.10;;;;;;;2.76;68.68;100547.51;109288;1253;71813;-80
2024/02/29 04:38:19;;;;;;;18.10;7.90;;;;;;;2.82;68.61;100542.42;109585;1253;69167;-79
2024/02/29 04:40:46;;;;;;;24.00;7.90;;;;;;;2.81;68.81;100542.86;109482;1251;71549;-79
2024/02/29 04:43:16;;;;;;;23.50;9.60;;;;;;;2.78;68.76;100541.98;109338;1251;59272;-78
2024/02/29 04:45:46;;;;;;;20.80;8.40;;;;;;;2.77;68.90;100530.89;109567;1251;58735;-77
2024/02/29 04:48:14;;;;;;;26.50;8.90;;;;;;;2.75;68.92;100544.07;109482;1251;71628;-77
2024/02/29 04:50:41;;;;;;;19.90;9.30;;;;;;;2.73;69.13;100544.91;109591;1251;69026;-79
2024/02/29 04:53:09;;;;;;;19.90;8.20;;;;;;;2.73;69.26;100550.38;109621;1251;73594;-77
2024/02/29 04:55:36;;;;;;;22.00;8.40;;;;;;;2.70;69.34;100547.55;108620;1251;59249;-78
2024/02/29 04:58:04;;;;;;;20.10;9.20;;;;;;;2.69;69.39;100554.79;107929;1256;59727;-80
2024/02/29 05:00:31;;;;;;;32.00;9.60;;;;;;;2.76;69.28;100554.02;107671;1253;73096;-78
2024/02/29 05:02:59;;;;;;;22.70;9.30;;;;;;;2.86;69.30;100560.22;109506;1251;68770;-79
2024/02/29 05:05:27;;;;;;;25.90;10.60;;;;;;;2.85;69.28;100555.02;109635;1251;71406;-80
2024/02/29 05:07:55;;;;;;;21.80;9.80;;;;;;;2.82;69.52;100560.11;108629;1251;59068;-81
2024/02/29 05:10:23;;;;;;;25.40;10.10;;;;;;;2.80;69.36;100563.55;108932;1251;60401;-81
2024/02/29 05:12:50;;;;;;;19.20;9.70;;;;;;;2.78;69.63;100558.77;109409;1251;72543;-80
2024/02/29 05:15:23;;;;;;;21.70;10.90;;;;;;;2.77;69.75;100557.48;109436;1251;71569;-80
2024/02/29 05:17:50;;;;;;;30.40;11.40;;;;;;;2.74;69.60;100558.52;109091;1254;72307;-81
2024/02/29 05:20:17;;;;;;;26.40;11.70;;;;;;;2.72;69.69;100560.57;109432;1251;58124;-80
2024/02/29 05:22:45;;;;;;;24.80;9.80;;;;;;;2.70;69.82;100555.64;109434;1254;58708;-78
2024/02/29 05:25:13;;;;;;;18.70;9.80;;;;;;;2.76;69.87;100559.42;108966;1254;72538;-79
2024/02/29 05:27:41;;;;;;;24.00;10.60;;;;;;;2.85;69.57;100563.09;108441;1252;69042;-79
2024/02/29 05:30:09;;;;;;;24.50;10.00;;;;;;;2.86;69.66;100564.06;108392;1251;72601;-79
2024/02/29 05:32:36;;;;;;;27.30;9.70;;;;;;;2.83;69.67;100569.34;108256;1254;59240;-79
2024/02/29 05:35:05;;;;;;;22.70;10.10;;;;;;;2.77;69.89;100571.63;109199;1253;60405;-82
2024/02/29 05:37:33;;;;;;;18.10;9.20;;;;;;;2.73;69.91;100569.42;108970;1254;72665;-80
2024/02/29 05:40:00;;;;;;;26.60;9.80;;;;;;;2.69;70.01;100571.80;109249;1251;70352;-79
2024/02/29 05:42:28;;;;;;;23.40;9.50;;;;;;;2.64;70.32;100568.96;109426;1253;71250;-77
2024/02/29 05:44:56;;;;;;;25.00;10.30;;;;;;;2.62;70.30;100568.76;109490;1252;58912;-75
2024/02/29 05:47:23;;;;;;;20.60;8.80;;;;;;;2.62;70.60;100570.10;109438;1251;57970;-77
2024/02/29 05:49:50;;;;;;;26.20;10.20;;;;;;;2.73;70.23;100572.90;109151;1251;73266;-76
2024/02/29 05:52:18;;;;;;;25.50;9.50;;;;;;;2.77;70.33;100578.24;107716;1256;71038;-79
2024/02/29 05:54:46;;;;;;;23.30;9.40;;;;;;;2.78;70.21;100579.58;106533;1257;71195;-78
2024/02/29 05:57:13;;;;;;;17.90;9.60;;;;;;;2.79;70.27;100580.58;106395;1254;60506;-79
2024/02/29 05:59:41;;;;;;;24.80;10.20;;;;;;;2.79;70.22;100582.52;106174;1259;60539;-78
2024/02/29 06:02:10;;;;;;;23.60;10.10;;;;;;;2.80;70.42;100581.26;106389;1257;72902;-81
2024/02/29 06:04:37;;;;;;;21.90;10.10;;;;;;;2.83;70.12;100586.49;106724;1251;70464;-85
2024/02/29 06:07:06;;;;;;;28.60;10.10;;;;;;;2.85;69.82;100587.38;106637;1255;72718;-82
2024/02/29 06:09:38;;;;;;;28.20;9.30;;;;;;;2.87;69.99;100591.12;106351;1255;60536;-82
2024/02/29 06:12:06;;;;;;;25.70;9.50;;;;;;;2.94;69.96;100585.05;106738;1258;60510;-80
2024/02/29 06:14:34;;;;;;;22.70;9.60;;;;;;;3.03;69.58;100580.48;106671;1256;72677;-79
2024/02/29 06:17:02;;;;;;;29.70;10.40;;;;;;;3.04;69.72;100578.84;106900;1256;71953;-79
2024/02/29 06:19:29;;;;;;;19.90;9.50;;;;;;;3.07;69.67;100580.38;106700;1256;73594;-79
2024/02/29 06:21:57;;;;;;;26.50;11.50;;;;;;;3.09;69.62;100585.34;107379;1251;60469;-80
2024/02/29 06:24:24;;;;;;;24.90;10.40;;;;;;;3.12;69.49;100584.27;107001;1251;60559;-79
2024/02/29 06:26:52;;;;;;;22.50;9.40;;;;;;;3.14;69.38;100590.60;106538;1256;72724;-82
2024/02/29 06:29:19;;;;;;;23.50;10.40;;;;;;;3.16;69.48;100590.33;106401;1251;69926;-79
2024/02/29 06:31:47;;;;;;;30.70;11.20;;;;;;;3.20;69.22;100586.41;106069;1259;72912;-77
2024/02/29 06:34:14;;;;;;;27.60;10.70;;;;;;;3.26;69.38;100587.52;105895;1257;60780;-76
2024/02/29 06:36:42;;;;;;;22.60;10.20;;;;;;;3.35;69.04;100587.67;106425;1256;60791;-77
2024/02/29 06:39:10;;;;;;;25.90;9.30;;;;;;;3.43;68.77;100589.63;108519;1254;74090;-76
2024/02/29 06:41:41;;;;;;;23.10;9.60;;;;;;;3.61;68.86;100592.10;108062;1251;69267;-79
2024/02/29 06:44:08;;;;;;;24.30;9.60;;;;;;;3.78;68.28;100589.04;106464;1257;71816;-78
2024/02/29 06:46:36;;;;;;;25.60;10.20;;;;;;;3.86;67.58;100590.20;106250;1251;60476;-79
2024/02/29 06:49:04;;;;;;;26.40;11.80;;;;;;;3.89;67.63;100589.17;106497;1251;60325;-78
2024/02/29 06:51:33;;;;;;;27.00;9.70;;;;;;;3.90;67.43;100590.30;106465;1252;72778;-80
2024/02/29 06:54:02;;;;;;;21.60;9.90;;;;;;;3.88;67.19;100590.77;106479;1256;72441;-75
2024/02/29 06:56:29;;;;;;;26.50;9.70;;;;;;;3.86;67.35;100589.52;106364;1254;70269;-80
2024/02/29 06:58:57;;;;;;;20.20;8.80;;;;;;;3.81;67.28;100584.77;106315;1254;60302;-78
2024/02/29 07:01:24;;;;;;;23.10;9.70;;;;;;;3.76;67.50;100588.80;106399;1254;60447;-77
2024/02/29 07:03:52;;;;;;;20.50;8.60;;;;;;;3.72;67.85;100592.88;106308;1259;73188;-79
2024/02/29 07:06:19;;;;;;;21.50;10.40;;;;;;;3.73;67.98;100583.55;106122;1254;69946;-78
2024/02/29 07:08:47;;;;;;;20.30;9.10;;;;;;;3.76;67.91;100571.14;105825;1256;72172;-78
2024/02/29 07:11:14;;;;;;;30.50;9.60;;;;;;;3.81;67.87;100576.39;106211;1254;60408;-79
2024/02/29 07:13:42;;;;;;;21.50;9.50;;;;;;;3.94;67.66;100571.30;106213;1253;60518;-79
2024/02/29 07:16:09;;;;;;;25.50;9.50;;;;;;;4.12;67.48;100573.73;106250;1257;72909;-78
2024/02/29 07:18:37;;;;;;;24.30;8.60;;;;;;;4.23;67.05;100573.34;105974;1254;70323;-79
2024/02/29 07:21:04;;;;;;;22.20;8.40;;;;;;;4.31;66.90;100572.20;106739;1254;72765;-78
2024/02/29 07:23:32;;;;;;;22.70;9.00;;;;;;;4.41;66.54;100571.84;107467;1259;60284;-78
2024/02/29 07:26:03;;;;;;;25.30;9.10;;;;;;;4.51;66.29;100575.20;107154;1254;60278;-78
2024/02/29 07:28:31;;;;;;;22.00;8.90;;;;;;;4.59;65.97;100574.83;106354;1257;72608;-78
2024/02/29 07:30:58;;;;;;;23.30;8.90;;;;;;;4.68;65.89;100582.44;106139;1254;69948;-78
2024/02/29 07:33:27;;;;;;;17.30;7.50;;;;;;;4.76;65.48;100579.73;108611;1253;70960;-78
2024/02/29 07:35:54;;;;;;;19.80;7.90;;;;;;;4.85;65.56;100578.77;108359;1253;60556;-79
2024/02/29 07:38:22;;;;;;;19.60;8.40;;;;;;;4.95;65.48;100576.98;106028;1259;62171;-79
2024/02/29 07:40:49;;;;;;;17.60;8.30;;;;;;;5.05;64.59;100586.10;106107;1257;72341;-79
2024/02/29 07:43:17;;;;;;;18.70;7.80;;;;;;;5.11;64.54;100587.55;106235;1258;72278;-78
2024/02/29 07:45:45;;;;;;;21.20;7.80;;;;;;;5.18;64.36;100589.69;106315;1259;71793;-78
2024/02/29 07:48:13;;;;;;;16.30;8.10;;;;;;;5.26;64.20;100582.42;106255;1253;60496;-79
2024/02/29 07:50:40;;;;;;;16.30;7.90;;;;;;;5.35;64.14;100588.98;106331;1257;60521;-78
2024/02/29 07:53:08;;;;;;;24.00;8.50;;;;;;;5.43;63.67;100583.42;106255;1253;75007;-78
2024/02/29 07:55:36;;;;;;;24.10;8.60;;;;;;;5.52;63.67;100579.62;106857;1254;72567;-79
2024/02/29 07:58:06;;;;;;;22.60;8.80;;;;;;;5.63;63.52;100580.95;107258;1259;71400;-79
2024/02/29 08:00:35;;;;;;;25.50;8.00;;;;;;;5.76;63.35;100588.72;106316;1255;61137;-78
2024/02/29 08:03:04;;;;;;;27.90;8.10;;;;;;;5.87;62.72;100595.99;106294;1256;62202;-78
2024/02/29 08:05:34;;;;;;;18.30;8.00;;;;;;;5.94;62.46;100590.52;106236;1257;72853;-78
2024/02/29 08:08:01;;;;;;;19.70;7.90;;;;;;;6.02;62.24;100590.87;106081;1254;69380;-78
2024/02/29 08:10:29;;;;;;;18.00;8.00;;;;;;;6.08;62.00;100590.67;105871;1260;72921;-79
2024/02/29 08:12:57;;;;;;;20.60;9.10;;;;;;;6.15;61.86;100593.90;105957;1259;60470;-76
2024/02/29 08:15:24;;;;;;;19.50;8.80;;;;;;;6.24;61.78;100595.47;105564;1262;60672;-75
2024/02/29 08:17:52;;;;;;;17.20;8.10;;;;;;;6.38;61.53;100595.83;105603;1257;75609;-77
2024/02/29 08:20:20;;;;;;;18.00;7.40;;;;;;;6.51;61.29;100600.41;106201;1257;72412;-76
2024/02/29 08:22:53;;;;;;;15.10;7.10;;;;;;;6.66;60.91;100599.60;106021;1257;71538;-78
2024/02/29 08:25:21;;;;;;;24.30;9.60;;;;;;;6.77;60.21;100597.98;106130;1259;60891;-78
2024/02/29 08:27:53;;;;;;;17.90;7.70;;;;;;;6.87;60.34;100593.69;107561;1253;60318;-75
2024/02/29 08:30:21;;;;;;;22.10;9.20;;;;;;;7.04;59.74;100598.16;107383;1257;72812;-75
2024/02/29 08:32:49;;;;;;;22.80;8.40;;;;;;;7.18;59.21;100597.73;106091;1254;72554;-76
2024/02/29 08:35:17;;;;;;;20.50;8.60;;;;;;;7.31;58.90;100593.29;106033;1254;74949;-80
2024/02/29 08:37:45;;;;;;;19.30;8.90;;;;;;;7.41;58.65;100586.14;106068;1266;60434;-77
2024/02/29 08:40:13;;;;;;;21.60;8.00;;;;;;;7.54;58.48;100579.98;106068;1257;60438;-76
2024/02/29 08:42:41;;;;;;;15.50;7.90;;;;;;;7.72;57.92;100581.11;106227;1257;75968;-78
2024/02/29 08:45:09;;;;;;;21.80;8.90;;;;;;;7.90;57.60;100578.33;106194;1259;70499;-77
2024/02/29 08:47:36;;;;;;;25.10;8.20;;;;;;;8.09;57.14;100577.40;106412;1254;73728;-78
2024/02/29 08:50:05;;;;;;;14.60;6.90;;;;;;;8.27;56.50;100577.59;106272;1253;60955;-81
2024/02/29 08:52:33;;;;;;;17.50;7.50;;;;;;;8.46;56.14;100575.69;106159;1260;61132;-76
2024/02/29 08:55:01;;;;;;;15.40;7.40;;;;;;;8.61;55.23;100578.22;106326;1257;73136;-79
2024/02/29 08:57:29;;;;;;;19.30;7.40;;;;;;;8.68;54.81;100575.50;106269;1254;72191;-80
2024/02/29 08:59:56;;;;;;;15.00;7.70;;;;;;;8.80;55.09;100572.33;107102;1256;71725;-78
2024/02/29 09:02:24;;;;;;;13.30;7.40;;;;;;;8.99;54.71;100571.02;107130;1254;60815;-79
2024/02/29 09:04:53;;;;;;;14.40;6.10;;;;;;;9.20;54.66;100571.02;107370;1259;60993;-77
2024/02/29 09:07:20;;;;;;;18.10;8.50;;;;;;;9.46;53.73;100571.52;107420;1254;74297;-79
2024/02/29 09:09:48;;;;;;;18.40;8.20;;;;;;;9.69;53.61;100573.51;107045;1254;69045;-80
2024/02/29 09:12:17;;;;;;;18.20;7.70;;;;;;;9.95;52.81;100566.98;107334;1255;71260;-80
2024/02/29 09:14:46;;;;;;;20.00;8.20;;;;;;;10.20;52.40;100569.58;106952;1257;60530;-79
2024/02/29 09:17:14;;;;;;;18.20;8.60;;;;;;;10.44;51.08;100571.27;106340;1255;61015;-76
2024/02/29 09:19:42;;;;;;;22.20;9.40;;;;;;;10.62;50.88;100571.16;106009;1260;74162;-76
2024/02/29 09:22:09;;;;;;;18.50;7.50;;;;;;;10.87;50.79;100574.34;107421;1254;72006;-76
2024/02/29 09:24:37;;;;;;;18.70;7.70;;;;;;;11.26;49.29;100576.80;107534;1257;74948;-76
2024/02/29 09:27:05;;;;;;;20.50;8.50;;;;;;;11.58;48.73;100574.79;106008;1258;60575;-77
2024/02/29 09:29:32;;;;;;;18.80;8.60;;;;;;;11.79;47.91;100572.05;106551;1254;60524;-77
2024/02/29 09:32:02;;;;;;;21.40;9.40;;;;;;;11.93;47.71;100575.03;107027;1257;74881;-79
2024/02/29 09:34:30;;;;;;;17.10;7.70;;;;;;;12.17;47.66;100582.08;105906;1260;70508;-76
2024/02/29 09:37:04;;;;;;;15.50;8.00;;;;;;;12.53;47.18;100578.33;105800;1257;71456;-76
2024/02/29 09:39:32;;;;;;;19.70;7.70;;;;;;;12.92;47.03;100577.55;105774;1258;60970;-77
2024/02/29 09:42:01;;;;;;;16.80;8.20;;;;;;;13.46;46.30;100574.39;105878;1255;60591;-78
2024/02/29 09:44:42;;;;;;;16.40;7.30;;;;;;;13.86;45.00;100568.02;105873;1261;72983;-77
2024/02/29 09:47:11;;;;;;;14.30;7.30;;;;;;;14.16;44.64;100572.89;105906;1254;68626;-77
2024/02/29 09:49:38;;;;;;;14.40;7.90;;;;;;;14.41;43.54;100573.83;105930;1270;73100;-79
2024/02/29 09:52:06;;;;;;;16.70;8.20;;;;;;;14.57;43.39;100570.31;105747;1259;60489;-79
2024/02/29 09:54:34;;;;;;;16.80;8.00;;;;;;;14.92;43.00;100572.91;105999;1257;60697;-79
2024/02/29 09:57:02;;;;;;;17.80;8.30;;;;;;;15.37;42.39;100572.95;105933;1261;74160;-78
2024/02/29 09:59:29;;;;;;;18.20;8.10;;;;;;;15.82;41.57;100567.09;105946;1259;68924;-76
2024/02/29 10:01:56;;;;;;;17.00;7.80;;;;;;;16.23;41.49;100564.33;105912;1260;73298;-78
2024/02/29 10:04:26;;;;;;;18.50;7.50;;;;;;;16.78;40.53;100552.32;105861;1266;60802;-77
2024/02/29 10:06:54;;;;;;;17.20;7.40;;;;;;;17.45;39.68;100548.17;105913;1257;61821;-77
2024/02/29 10:09:22;;;;;;;12.10;7.30;;;;;;;18.04;39.14;100551.77;106025;1257;76143;-77
2024/02/29 10:11:49;;;;;;;15.30;6.50;;;;;;;18.56;37.55;100551.84;105692;1257;69688;-80
2024/02/29 10:14:21;;;;;;;18.90;8.10;;;;;;;18.98;37.09;100554.98;106060;1257;73274;-75
2024/02/29 10:16:52;;;;;;;13.50;7.00;;;;;;;19.37;36.63;100551.62;107587;1252;60334;-75
2024/02/29 10:19:23;;;;;;;13.90;6.90;;;;;;;19.74;35.87;100547.52;108007;1256;61024;-76
2024/02/29 10:21:51;;;;;;;16.40;6.80;;;;;;;20.04;35.00;100550.48;106341;1256;76069;-78
2024/02/29 10:24:19;;;;;;;13.90;7.30;;;;;;;20.10;34.34;100551.34;106147;1264;72442;-81
2024/02/29 10:26:47;;;;;;;19.70;8.50;;;;;;;19.99;34.16;100543.77;106340;1254;74724;-81
2024/02/29 10:29:16;;;;;;;15.10;7.20;;;;;;;19.75;34.45;100552.71;106221;1262;60777;-82
2024/02/29 10:31:44;;;;;;;14.00;7.20;;;;;;;19.63;34.69;100560.16;106669;1252;60393;-81
2024/02/29 10:34:12;;;;;;;17.20;7.30;;;;;;;19.68;34.38;100546.39;106266;1257;73821;-77
2024/02/29 10:36:40;;;;;;;12.20;7.10;;;;;;;19.72;34.06;100541.55;105959;1254;72644;-78
2024/02/29 10:39:08;;;;;;;16.80;7.40;;;;;;;19.71;34.22;100538.98;105974;1254;72970;-78
2024/02/29 10:41:36;;;;;;;16.10;6.90;;;;;;;19.88;34.16;100533.45;105881;1255;62035;-79
2024/02/29 10:44:04;;;;;;;14.30;7.20;;;;;;;20.10;34.11;100530.00;105928;1257;60527;-79
2024/02/29 10:46:32;;;;;;;11.70;6.60;;;;;;;20.39;33.74;100533.02;105923;1257;75913;-79
2024/02/29 10:49:05;;;;;;;12.00;6.90;;;;;;;20.68;33.31;100525.16;105895;1257;69319;-80
2024/02/29 10:51:36;;;;;;;;;;;;;;;20.80;33.16;100528.10;106386;1254;73000;-80
2024/02/29 10:54:23;;;;;;;14.80;6.50;;;;;;;20.88;33.12;100522.36;106042;1257;61347;-78
2024/02/29 10:56:52;;;;;;;16.60;6.30;;;;;;;21.12;32.47;100520.08;106111;1253;60392;-79
2024/02/29 10:59:20;;;;;;;10.20;6.20;;;;;;;21.10;32.09;100517.52;106317;1251;73936;-81
2024/02/29 11:01:47;;;;;;;11.40;7.00;;;;;;;20.91;32.27;100519.77;106292;1251;70437;-80
2024/02/29 11:04:15;;;;;;;12.60;7.10;;;;;;;20.76;32.61;100517.19;107398;1254;73728;-80
2024/02/29 11:06:47;;;;;;;12.60;7.80;;;;;;;20.89;32.87;100519.15;107229;1254;61023;-80
2024/02/29 11:09:17;;;;;;;12.80;7.20;;;;;;;21.36;32.55;100513.52;106091;1253;60418;-80
2024/02/29 11:11:47;;;;;;;12.50;6.50;;;;;;;21.80;32.33;100510.09;108998;1255;75647;-78
2024/02/29 11:14:17;;;;;;;16.10;7.40;;;;;;;22.22;31.55;100508.33;108513;1251;69026;-81
2024/02/29 11:16:48;;;;;;;15.40;7.40;;;;;;;22.23;31.63;100508.10;106035;1251;72448;-80
2024/02/29 11:19:17;;;;;;;14.60;8.20;;;;;;;22.27;31.33;100512.48;105965;1260;61009;-80
2024/02/29 11:21:46;;;;;;;12.20;7.80;;;;;;;22.22;30.76;100506.67;106251;1251;60466;-79